Time;durP1;ratioP1;P1;durP2;ratioP2;P2;SDS_P1;SDS_P2;PMS_P1;PMS_P2;Temp;Humidity;BMP_temperature;BMP_pressure;BME280_temperature;BME280_humidity;BME280_pressure;Samples;Min_cycle;Max_cycle;Signal;HPM_P1;HPM_P2
2021/12/10 00:01:30;;;;;;;46.38;24.48;;;;;;;;;;5064480;28;20036;-75
2021/12/10 00:03:58;;;;;;;43.42;21.48;;;;;;;;;;5068366;28;20021;-75
2021/12/10 00:06:29;;;;;;;49.13;22.15;;;;;;;;;;5064498;28;20021;-75
2021/12/10 00:08:57;;;;;;;39.70;21.10;;;;;;;;;;5069351;28;20036;-74
2021/12/10 00:11:28;;;;;;;42.00;21.35;;;;;;;;;;5060998;28;20040;-74
2021/12/10 00:13:55;;;;;;;34.25;20.13;;;;;;;;;;5056225;28;20113;-75
2021/12/10 00:16:21;;;;;;;37.10;21.27;;;;;;;;;;5069325;28;20402;-75
2021/12/10 00:18:54;;;;;;;38.15;19.95;;;;;;;;;;5066696;28;20025;-75
2021/12/10 00:21:22;;;;;;;41.22;22.38;;;;;;;;;;5066194;28;20032;-75
2021/12/10 00:23:50;;;;;;;36.58;20.58;;;;;;;;;;5066489;28;20048;-75
2021/12/10 00:26:17;;;;;;;37.28;19.48;;;;;;;;;;5057947;28;20414;-74
2021/12/10 00:28:43;;;;;;;43.22;19.77;;;;;;;;;;5057417;28;20104;-74
2021/12/10 00:31:19;;;;;;;42.97;21.40;;;;;;;;;;5064820;28;20029;-75
2021/12/10 00:33:56;;;;;;;42.35;20.77;;;;;;;;;;5060696;28;20064;-75
2021/12/10 00:36:23;;;;;;;47.17;22.25;;;;;;;;;;5069150;28;20031;-75
2021/12/10 00:38:51;;;;;;;40.95;20.50;;;;;;;;;;5064053;28;20119;-75
2021/12/10 00:41:17;;;;;;;37.78;20.83;;;;;;;;;;5068274;28;20029;-74
2021/12/10 00:43:43;;;;;;;36.80;19.13;;;;;;;;;;5065238;28;20111;-75
2021/12/10 00:46:09;;;;;;;41.28;19.90;;;;;;;;;;5067064;28;20025;-75
2021/12/10 00:48:35;;;;;;;42.22;20.00;;;;;;;;;;5059817;28;20107;-74
2021/12/10 00:51:02;;;;;;;37.25;20.40;;;;;;;;;;5066032;28;20044;-74
2021/12/10 00:53:28;;;;;;;36.28;21.13;;;;;;;;;;5060503;28;20111;-74
2021/12/10 00:55:54;;;;;;;40.92;22.10;;;;;;;;;;5070711;28;20051;-75
2021/12/10 00:58:21;;;;;;;36.30;20.17;;;;;;;;;;5062019;28;20685;-74
2021/12/10 01:00:55;;;;;;;41.15;20.05;;;;;;;;;;5057189;28;20051;-74
2021/12/10 01:03:23;;;;;;;43.13;18.33;;;;;;;;;;5064431;28;20520;-74
2021/12/10 01:05:52;;;;;;;36.92;19.35;;;;;;;;;;5066145;28;20047;-75
2021/12/10 01:08:18;;;;;;;46.95;18.60;;;;;;;;;;5063329;28;20103;-74
2021/12/10 01:10:50;;;;;;;36.85;20.70;;;;;;;;;;5057930;28;20033;-74
2021/12/10 01:13:19;;;;;;;40.25;18.30;;;;;;;;;;5066323;28;20037;-74
2021/12/10 01:15:53;;;;;;;35.80;18.95;;;;;;;;;;5077484;28;20036;-74
2021/12/10 01:24:33;;;;;;;34.38;17.30;;;;;;;;;;4996748;28;20034;-76
2021/12/10 01:27:08;;;;;;;33.88;16.38;;;;;;;;;;5064822;28;20481;-74
2021/12/10 01:29:36;;;;;;;29.15;16.63;;;;;;;;;;5066866;28;20060;-74
2021/12/10 01:32:05;;;;;;;32.60;17.08;;;;;;;;;;5065329;28;20044;-73
2021/12/10 01:34:31;;;;;;;31.10;17.83;;;;;;;;;;5055636;28;20031;-74
2021/12/10 01:36:57;;;;;;;45.88;18.50;;;;;;;;;;5063974;28;20043;-73
2021/12/10 01:39:26;;;;;;;26.23;15.80;;;;;;;;;;5067470;28;20044;-73
2021/12/10 01:42:02;;;;;;;37.25;16.50;;;;;;;;;;5062883;28;20115;-73
2021/12/10 01:44:32;;;;;;;33.50;15.40;;;;;;;;;;5059652;28;20025;-74
2021/12/10 01:47:00;;;;;;;31.20;14.48;;;;;;;;;;5065572;28;20032;-73
2021/12/10 01:49:26;;;;;;;33.05;13.90;;;;;;;;;;5065794;28;20075;-73
2021/12/10 01:51:53;;;;;;;36.28;13.43;;;;;;;;;;5065862;28;20033;-73
2021/12/10 01:54:21;;;;;;;32.25;15.38;;;;;;;;;;5061065;28;20024;-73
2021/12/10 01:56:49;;;;;;;29.15;15.05;;;;;;;;;;5057464;28;20041;-73
2021/12/10 01:59:16;;;;;;;30.10;14.20;;;;;;;;;;5056453;28;20017;-73
2021/12/10 02:01:45;;;;;;;31.92;13.55;;;;;;;;;;5063645;28;20040;-72
2021/12/10 02:04:12;;;;;;;34.00;13.27;;;;;;;;;;5062188;28;20029;-74
2021/12/10 02:06:39;;;;;;;25.23;12.13;;;;;;;;;;5067078;28;20062;-73
2021/12/10 02:09:06;;;;;;;26.40;12.52;;;;;;;;;;5061646;28;20031;-73
2021/12/10 02:11:32;;;;;;;31.08;12.60;;;;;;;;;;5058751;28;20031;-73
2021/12/10 02:13:58;;;;;;;28.40;12.40;;;;;;;;;;5058398;28;20036;-73
2021/12/10 02:16:24;;;;;;;24.40;12.18;;;;;;;;;;5062594;28;20028;-73
2021/12/10 02:18:51;;;;;;;42.22;11.93;;;;;;;;;;5061239;28;20032;-73
2021/12/10 02:21:18;;;;;;;22.60;10.32;;;;;;;;;;5061950;28;20474;-74
2021/12/10 02:23:48;;;;;;;30.92;11.20;;;;;;;;;;5062259;28;21688;-74
2021/12/10 02:26:15;;;;;;;28.20;11.15;;;;;;;;;;5050848;28;20082;-74
2021/12/10 02:28:41;;;;;;;21.10;10.60;;;;;;;;;;5063193;28;20048;-74
2021/12/10 02:31:08;;;;;;;28.38;10.63;;;;;;;;;;5063528;28;20039;-74
2021/12/10 02:33:34;;;;;;;27.70;12.00;;;;;;;;;;5063136;28;20067;-75
2021/12/10 02:36:00;;;;;;;26.15;10.75;;;;;;;;;;5055573;28;20030;-75
2021/12/10 02:38:26;;;;;;;26.70;11.10;;;;;;;;;;5061603;28;20036;-73
2021/12/10 02:40:53;;;;;;;31.00;11.50;;;;;;;;;;5059464;28;20047;-74
2021/12/10 02:43:20;;;;;;;34.40;11.57;;;;;;;;;;5062020;28;20024;-74
2021/12/10 02:45:49;;;;;;;31.88;11.88;;;;;;;;;;5069520;28;20032;-74
2021/12/10 02:48:15;;;;;;;33.78;11.90;;;;;;;;;;5064540;28;20040;-74
2021/12/10 02:50:43;;;;;;;37.42;11.30;;;;;;;;;;5061846;28;20040;-74
2021/12/10 02:53:10;;;;;;;31.50;11.60;;;;;;;;;;5063044;28;20036;-74
2021/12/10 02:55:37;;;;;;;19.55;11.35;;;;;;;;;;5065541;28;20078;-76
2021/12/10 02:58:06;;;;;;;33.05;11.57;;;;;;;;;;5061895;28;20102;-75
2021/12/10 03:00:39;;;;;;;34.88;12.40;;;;;;;;;;5059040;28;20108;-75
2021/12/10 03:03:05;;;;;;;26.52;12.07;;;;;;;;;;5062697;28;20059;-75
2021/12/10 03:05:31;;;;;;;25.90;12.38;;;;;;;;;;5061306;28;20471;-75
2021/12/10 03:07:58;;;;;;;19.27;10.75;;;;;;;;;;5056681;28;20046;-75
2021/12/10 03:10:26;;;;;;;25.80;11.70;;;;;;;;;;5061131;28;20029;-75
2021/12/10 03:12:52;;;;;;;25.73;12.50;;;;;;;;;;5060104;28;20474;-75
2021/12/10 03:15:19;;;;;;;36.75;10.60;;;;;;;;;;5061040;28;20025;-74
2021/12/10 03:17:46;;;;;;;24.92;12.15;;;;;;;;;;5065169;28;20040;-74
2021/12/10 03:20:14;;;;;;;38.55;11.18;;;;;;;;;;5059407;28;20043;-74
2021/12/10 03:22:40;;;;;;;25.65;13.05;;;;;;;;;;5060647;28;20060;-74
2021/12/10 03:25:07;;;;;;;20.73;10.38;;;;;;;;;;5069245;28;20398;-74
2021/12/10 03:27:33;;;;;;;22.40;12.35;;;;;;;;;;5063137;28;20037;-75
2021/12/10 03:29:59;;;;;;;30.27;12.43;;;;;;;;;;5062960;28;20107;-77
2021/12/10 03:32:28;;;;;;;32.78;13.73;;;;;;;;;;5067407;28;20028;-76
2021/12/10 03:34:56;;;;;;;27.13;11.43;;;;;;;;;;5055828;28;20036;-75
2021/12/10 03:37:22;;;;;;;24.95;11.95;;;;;;;;;;5057098;28;20120;-75
2021/12/10 03:39:49;;;;;;;24.90;11.38;;;;;;;;;;5071918;28;20067;-75
2021/12/10 03:42:15;;;;;;;34.83;11.90;;;;;;;;;;5058667;28;20028;-75
2021/12/10 03:44:41;;;;;;;28.42;12.70;;;;;;;;;;5061874;28;20487;-75
2021/12/10 03:47:08;;;;;;;18.70;11.50;;;;;;;;;;5061665;28;20086;-74
2021/12/10 03:49:35;;;;;;;24.83;11.32;;;;;;;;;;5071465;28;20063;-74
2021/12/10 03:52:01;;;;;;;25.58;10.98;;;;;;;;;;5064815;28;20024;-75
2021/12/10 03:54:27;;;;;;;22.33;9.95;;;;;;;;;;5069042;28;20043;-75
2021/12/10 03:56:53;;;;;;;12.30;9.60;;;;;;;;;;5023118;28;1121458;-75
2021/12/10 03:59:20;;;;;;;24.88;9.95;;;;;;;;;;5057520;28;20044;-74
2021/12/10 04:01:48;;;;;;;24.42;10.57;;;;;;;;;;5065801;28;20029;-74
2021/12/10 04:04:23;;;;;;;18.25;9.00;;;;;;;;;;5068855;28;20109;-74
2021/12/10 04:06:49;;;;;;;20.73;9.38;;;;;;;;;;5066177;28;20162;-74
2021/12/10 04:09:16;;;;;;;21.40;10.02;;;;;;;;;;5050426;28;20020;-74
2021/12/10 04:11:42;;;;;;;23.27;9.00;;;;;;;;;;5068304;28;20035;-74
2021/12/10 04:14:09;;;;;;;20.15;9.45;;;;;;;;;;5060087;28;20048;-74
2021/12/10 04:16:35;;;;;;;21.60;9.90;;;;;;;;;;5050044;28;20032;-74
2021/12/10 04:19:03;;;;;;;18.73;8.57;;;;;;;;;;5068635;28;20040;-74
2021/12/10 04:21:29;;;;;;;25.45;9.45;;;;;;;;;;5059668;28;20064;-76
2021/12/10 04:23:56;;;;;;;20.77;9.02;;;;;;;;;;5062168;28;20025;-74
2021/12/10 04:26:24;;;;;;;15.88;8.65;;;;;;;;;;5065512;28;20025;-75
2021/12/10 04:28:51;;;;;;;17.40;9.35;;;;;;;;;;5051644;28;20090;-75
2021/12/10 04:31:17;;;;;;;22.42;8.45;;;;;;;;;;5061151;28;20029;-75
2021/12/10 04:33:43;;;;;;;18.40;9.32;;;;;;;;;;5064240;28;20032;-75
2021/12/10 04:36:09;;;;;;;23.70;8.90;;;;;;;;;;5066486;28;20037;-76
2021/12/10 04:38:36;;;;;;;25.42;10.32;;;;;;;;;;5060429;28;20036;-76
2021/12/10 04:41:04;;;;;;;18.05;9.43;;;;;;;;;;5057938;28;20544;-76
2021/12/10 04:43:31;;;;;;;20.70;9.05;;;;;;;;;;5069541;28;20029;-76
2021/12/10 04:45:58;;;;;;;18.20;9.18;;;;;;;;;;5045974;28;20033;-77
2021/12/10 04:48:26;;;;;;;22.20;9.38;;;;;;;;;;5071229;28;20028;-76
2021/12/10 04:50:52;;;;;;;19.65;9.70;;;;;;;;;;5063636;28;20032;-75
2021/12/10 04:53:18;;;;;;;17.67;9.27;;;;;;;;;;5065289;28;20048;-76
2021/12/10 04:55:45;;;;;;;21.45;9.27;;;;;;;;;;5066205;28;20112;-77
2021/12/10 04:58:11;;;;;;;23.27;9.52;;;;;;;;;;5052709;28;20127;-75
2021/12/10 05:00:43;;;;;;;20.80;9.57;;;;;;;;;;5063146;28;20082;-75
2021/12/10 05:03:09;;;;;;;25.95;11.07;;;;;;;;;;5063357;28;20103;-76
2021/12/10 05:05:36;;;;;;;18.27;10.18;;;;;;;;;;5065019;28;20028;-75
2021/12/10 05:08:03;;;;;;;20.23;9.68;;;;;;;;;;5061691;28;20510;-75
2021/12/10 05:10:29;;;;;;;14.05;7.93;;;;;;;;;;5071250;28;20025;-75
2021/12/10 05:12:55;;;;;;;17.67;8.23;;;;;;;;;;5063627;28;20487;-75
2021/12/10 05:15:23;;;;;;;22.48;9.55;;;;;;;;;;5066256;28;20028;-75
2021/12/10 05:17:50;;;;;;;27.05;9.80;;;;;;;;;;5062241;28;20387;-75
2021/12/10 05:20:22;;;;;;;18.33;9.05;;;;;;;;;;5048963;28;20074;-75
2021/12/10 05:22:48;;;;;;;18.23;9.38;;;;;;;;;;5061864;28;20111;-75
2021/12/10 05:25:15;;;;;;;21.02;9.20;;;;;;;;;;5058027;28;20104;-76
2021/12/10 05:27:42;;;;;;;20.63;9.10;;;;;;;;;;5065102;28;20037;-76
2021/12/10 05:30:09;;;;;;;25.35;12.18;;;;;;;;;;5069923;28;20070;-76
2021/12/10 05:32:35;;;;;;;18.33;10.68;;;;;;;;;;5058547;28;20036;-75
2021/12/10 05:35:02;;;;;;;33.10;12.60;;;;;;;;;;5048935;28;20086;-74
2021/12/10 05:37:28;;;;;;;19.75;10.68;;;;;;;;;;5070400;28;20041;-75
2021/12/10 05:39:54;;;;;;;30.15;11.98;;;;;;;;;;5060334;28;20024;-76
2021/12/10 05:42:20;;;;;;;21.73;10.52;;;;;;;;;;5071000;28;20020;-75
2021/12/10 05:44:46;;;;;;;23.52;12.70;;;;;;;;;;5065689;28;20107;-75
2021/12/10 05:47:12;;;;;;;23.33;12.45;;;;;;;;;;5070641;28;20036;-76
2021/12/10 05:49:39;;;;;;;24.85;12.57;;;;;;;;;;5061424;28;20032;-76
2021/12/10 05:52:05;;;;;;;27.48;13.35;;;;;;;;;;5061819;28;20128;-76
2021/12/10 05:54:31;;;;;;;22.30;12.25;;;;;;;;;;5048452;28;20123;-75
2021/12/10 05:56:57;;;;;;;28.52;13.98;;;;;;;;;;5062948;28;20040;-76
2021/12/10 05:59:24;;;;;;;42.20;23.27;;;;;;;;;;5062189;28;20031;-79
2021/12/10 06:01:50;;;;;;;33.08;17.80;;;;;;;;;;5063771;28;20036;-77
2021/12/10 06:04:22;;;;;;;22.58;13.13;;;;;;;;;;5074743;28;20055;-75
2021/12/10 06:06:48;;;;;;;24.00;13.10;;;;;;;;;;5049150;28;20062;-75
2021/12/10 06:09:14;;;;;;;24.23;12.77;;;;;;;;;;5068634;28;20028;-75
2021/12/10 06:11:40;;;;;;;23.65;14.05;;;;;;;;;;5055816;28;20089;-76
2021/12/10 06:14:07;;;;;;;19.85;12.07;;;;;;;;;;5079006;28;20367;-73
2021/12/10 06:16:34;;;;;;;24.17;13.15;;;;;;;;;;5047917;28;20043;-74
2021/12/10 06:19:00;;;;;;;23.75;13.05;;;;;;;;;;5068572;28;20055;-74
2021/12/10 06:21:28;;;;;;;28.92;13.95;;;;;;;;;;5063681;28;20064;-74
2021/12/10 06:23:54;;;;;;;25.50;15.23;;;;;;;;;;5057750;28;20050;-74
2021/12/10 06:26:20;;;;;;;24.33;14.23;;;;;;;;;;5062546;28;20020;-74
2021/12/10 06:28:46;;;;;;;26.08;14.63;;;;;;;;;;5067493;28;20028;-74
2021/12/10 06:31:14;;;;;;;22.15;12.93;;;;;;;;;;5058364;28;20036;-74
2021/12/10 06:33:40;;;;;;;33.85;14.85;;;;;;;;;;5059802;28;20482;-75
2021/12/10 06:36:06;;;;;;;21.45;14.10;;;;;;;;;;5055809;28;20406;-75
2021/12/10 06:38:33;;;;;;;28.20;14.05;;;;;;;;;;5059029;28;20673;-77
2021/12/10 06:40:59;;;;;;;26.65;16.50;;;;;;;;;;5068873;28;20131;-76
2021/12/10 06:43:26;;;;;;;33.90;14.50;;;;;;;;;;5062012;28;20057;-74
2021/12/10 06:45:52;;;;;;;23.23;14.55;;;;;;;;;;5062123;28;20032;-74
2021/12/10 06:48:18;;;;;;;22.55;13.63;;;;;;;;;;5060249;28;20503;-74
2021/12/10 06:50:46;;;;;;;25.42;14.50;;;;;;;;;;5058036;28;20043;-74
2021/12/10 06:53:12;;;;;;;22.98;13.40;;;;;;;;;;5062404;28;20046;-74
2021/12/10 06:55:38;;;;;;;24.92;13.73;;;;;;;;;;5069235;28;20041;-74
2021/12/10 06:58:06;;;;;;;24.75;12.70;;;;;;;;;;5070154;28;20068;-73
2021/12/10 07:00:34;;;;;;;19.67;11.23;;;;;;;;;;5063180;28;20059;-74
2021/12/10 07:03:00;;;;;;;20.73;12.50;;;;;;;;;;5062761;28;20032;-74
2021/12/10 07:05:26;;;;;;;22.35;12.15;;;;;;;;;;5062869;28;20123;-75
2021/12/10 07:07:53;;;;;;;22.30;12.10;;;;;;;;;;5060202;28;20029;-74
2021/12/10 07:10:19;;;;;;;22.02;11.52;;;;;;;;;;5060452;28;20048;-74
2021/12/10 07:12:45;;;;;;;19.38;11.57;;;;;;;;;;5074141;28;20029;-74
2021/12/10 07:15:14;;;;;;;22.08;12.40;;;;;;;;;;5068511;28;20039;-74
2021/12/10 07:17:41;;;;;;;23.45;11.50;;;;;;;;;;5065241;28;20474;-74
2021/12/10 07:20:08;;;;;;;23.80;13.38;;;;;;;;;;5070225;28;20413;-74
2021/12/10 07:22:34;;;;;;;17.92;11.70;;;;;;;;;;5068517;28;20017;-74
2021/12/10 07:25:00;;;;;;;23.33;11.57;;;;;;;;;;5062080;28;20037;-74
2021/12/10 07:27:26;;;;;;;17.05;10.93;;;;;;;;;;5063607;28;20037;-74
2021/12/10 07:29:53;;;;;;;19.15;11.05;;;;;;;;;;5055924;28;20017;-74
2021/12/10 07:32:19;;;;;;;19.85;11.43;;;;;;;;;;5064790;28;20047;-75
2021/12/10 07:34:45;;;;;;;22.13;10.45;;;;;;;;;;5072807;28;20132;-75
2021/12/10 07:37:11;;;;;;;22.35;11.93;;;;;;;;;;5066120;28;20123;-75
2021/12/10 07:39:38;;;;;;;17.80;11.70;;;;;;;;;;5055830;28;20017;-75
2021/12/10 07:42:07;;;;;;;15.95;9.48;;;;;;;;;;5070166;28;20028;-74
2021/12/10 07:44:33;;;;;;;19.38;10.80;;;;;;;;;;5049568;28;20640;-74
2021/12/10 07:47:01;;;;;;;16.35;10.20;;;;;;;;;;5061171;28;20406;-74
2021/12/10 07:49:31;;;;;;;18.42;10.25;;;;;;;;;;5062229;28;20087;-74
2021/12/10 07:51:58;;;;;;;21.35;10.55;;;;;;;;;;5073795;28;20035;-74
2021/12/10 07:54:24;;;;;;;13.55;9.05;;;;;;;;;;5061116;28;20127;-74
2021/12/10 07:56:51;;;;;;;12.85;9.20;;;;;;;;;;5053912;28;20043;-74
2021/12/10 07:59:17;;;;;;;20.30;10.20;;;;;;;;;;5065488;28;20033;-74
2021/12/10 08:01:43;;;;;;;16.67;9.93;;;;;;;;;;5052092;28;20036;-74
2021/12/10 08:04:09;;;;;;;17.92;9.18;;;;;;;;;;5063673;28;20116;-74
2021/12/10 08:06:36;;;;;;;13.55;10.15;;;;;;;;;;5064864;28;20111;-73
2021/12/10 08:09:06;;;;;;;14.60;9.27;;;;;;;;;;5075764;28;20098;-71
2021/12/10 08:11:32;;;;;;;18.02;9.52;;;;;;;;;;5071111;28;20150;-73
2021/12/10 08:13:58;;;;;;;11.40;7.68;;;;;;;;;;5069153;28;20032;-73
2021/12/10 08:16:25;;;;;;;16.10;8.10;;;;;;;;;;5067357;28;20481;-73
2021/12/10 08:18:52;;;;;;;14.15;8.38;;;;;;;;;;5072679;28;20039;-73
2021/12/10 08:21:18;;;;;;;13.88;8.57;;;;;;;;;;5062262;28;20530;-73
2021/12/10 08:23:44;;;;;;;13.75;8.15;;;;;;;;;;5062440;28;20159;-73
2021/12/10 08:26:12;;;;;;;14.25;9.52;;;;;;;;;;5065445;28;20119;-73
2021/12/10 08:28:38;;;;;;;15.55;8.18;;;;;;;;;;5063109;28;20051;-73
2021/12/10 08:31:05;;;;;;;15.40;8.80;;;;;;;;;;5067839;28;20043;-73
2021/12/10 08:33:31;;;;;;;16.80;8.50;;;;;;;;;;5064896;28;20029;-73
2021/12/10 08:35:59;;;;;;;18.52;9.10;;;;;;;;;;5060961;28;20043;-73
2021/12/10 08:38:26;;;;;;;16.50;8.75;;;;;;;;;;5061810;28;20044;-73
2021/12/10 08:40:57;;;;;;;18.23;9.07;;;;;;;;;;5063107;28;20075;-74
2021/12/10 08:43:24;;;;;;;16.93;8.33;;;;;;;;;;5062516;28;20037;-74
2021/12/10 08:45:52;;;;;;;14.57;8.38;;;;;;;;;;5070787;28;20086;-74
2021/12/10 08:48:19;;;;;;;13.02;7.10;;;;;;;;;;5069285;28;20111;-74
2021/12/10 08:50:45;;;;;;;12.20;7.63;;;;;;;;;;5050396;28;20091;-74
2021/12/10 08:53:13;;;;;;;13.32;8.27;;;;;;;;;;5060814;28;20044;-75
2021/12/10 08:55:40;;;;;;;12.70;7.97;;;;;;;;;;5066414;28;20033;-75
2021/12/10 08:58:06;;;;;;;13.35;7.22;;;;;;;;;;5084814;28;20058;-74
2021/12/10 09:00:32;;;;;;;15.05;7.43;;;;;;;;;;5054753;28;20071;-75
2021/12/10 09:02:58;;;;;;;13.05;7.63;;;;;;;;;;5069199;28;20032;-74
2021/12/10 09:05:25;;;;;;;14.02;8.30;;;;;;;;;;5060155;28;20115;-74
2021/12/10 09:07:51;;;;;;;14.52;8.55;;;;;;;;;;5069217;28;20044;-74
2021/12/10 09:10:21;;;;;;;27.15;14.95;;;;;;;;;;5063329;28;20033;-74
2021/12/10 09:12:47;;;;;;;12.35;6.63;;;;;;;;;;5070639;28;20085;-74
2021/12/10 09:15:18;;;;;;;20.67;7.53;;;;;;;;;;5064665;28;20036;-75
2021/12/10 09:17:44;;;;;;;13.05;6.68;;;;;;;;;;5063200;28;20031;-75
2021/12/10 09:20:14;;;;;;;11.70;6.70;;;;;;;;;;5065367;28;20033;-75
2021/12/10 09:22:41;;;;;;;13.95;6.57;;;;;;;;;;5065280;28;20048;-75
2021/12/10 09:25:07;;;;;;;9.93;6.53;;;;;;;;;;5065487;28;20113;-75
2021/12/10 09:27:34;;;;;;;10.45;5.68;;;;;;;;;;5061244;28;20037;-75
2021/12/10 09:30:00;;;;;;;10.07;6.03;;;;;;;;;;5056236;28;20039;-75
2021/12/10 09:32:29;;;;;;;12.05;5.75;;;;;;;;;;5060429;28;20175;-74
2021/12/10 09:34:57;;;;;;;15.38;6.55;;;;;;;;;;5056764;28;20045;-75
2021/12/10 09:37:24;;;;;;;9.50;5.28;;;;;;;;;;5044530;28;20025;-74
2021/12/10 09:39:51;;;;;;;10.95;5.35;;;;;;;;;;5057076;28;20021;-75
2021/12/10 09:42:20;;;;;;;9.25;4.55;;;;;;;;;;5064505;28;20035;-75
2021/12/10 09:44:46;;;;;;;12.10;6.60;;;;;;;;;;5051825;28;20028;-75
2021/12/10 09:47:15;;;;;;;9.07;4.85;;;;;;;;;;5062595;28;20127;-75
2021/12/10 09:49:42;;;;;;;11.43;5.10;;;;;;;;;;5061180;28;20032;-76
2021/12/10 09:52:09;;;;;;;9.52;4.90;;;;;;;;;;5061879;28;20039;-75
2021/12/10 09:54:37;;;;;;;12.27;4.85;;;;;;;;;;5063521;28;20036;-75
2021/12/10 09:57:06;;;;;;;9.35;5.55;;;;;;;;;;5056665;28;20567;-75
2021/12/10 09:59:33;;;;;;;8.88;4.43;;;;;;;;;;5063072;28;20549;-75
2021/12/10 10:02:00;;;;;;;11.50;5.38;;;;;;;;;;5066182;28;20037;-75
2021/12/10 10:04:27;;;;;;;11.02;4.75;;;;;;;;;;5058482;28;20017;-75
2021/12/10 10:06:58;;;;;;;12.32;5.13;;;;;;;;;;5043980;28;20036;-75
2021/12/10 10:09:24;;;;;;;9.70;4.85;;;;;;;;;;5061453;28;20039;-75
2021/12/10 10:11:59;;;;;;;11.82;5.68;;;;;;;;;;5062993;28;20055;-75
2021/12/10 10:14:26;;;;;;;10.68;4.60;;;;;;;;;;5060076;28;20029;-75
2021/12/10 10:16:52;;;;;;;11.07;4.80;;;;;;;;;;5063708;28;20058;-75
2021/12/10 10:19:18;;;;;;;7.35;3.72;;;;;;;;;;5068600;28;20423;-76
2021/12/10 10:21:48;;;;;;;23.25;10.70;;;;;;;;;;5064139;28;20036;-77
2021/12/10 10:24:15;;;;;;;10.60;4.20;;;;;;;;;;5071707;28;20028;-76
2021/12/10 10:26:43;;;;;;;6.40;4.25;;;;;;;;;;5062086;28;20475;-76
2021/12/10 10:29:12;;;;;;;8.68;4.88;;;;;;;;;;5054793;28;20033;-75
2021/12/10 10:31:40;;;;;;;10.25;4.63;;;;;;;;;;5065290;28;20116;-76
2021/12/10 10:34:08;;;;;;;7.18;3.30;;;;;;;;;;5057169;28;20029;-77
2021/12/10 10:36:34;;;;;;;9.23;4.10;;;;;;;;;;5049682;28;20037;-76
2021/12/10 10:39:09;;;;;;;8.18;3.30;;;;;;;;;;5067414;28;20071;-77
2021/12/10 10:41:35;;;;;;;12.63;3.88;;;;;;;;;;5069942;28;20386;-77
2021/12/10 10:44:02;;;;;;;12.82;4.05;;;;;;;;;;5066123;28;20028;-77
2021/12/10 10:46:31;;;;;;;13.90;4.72;;;;;;;;;;5058838;28;20028;-76
2021/12/10 10:48:57;;;;;;;55.05;21.08;;;;;;;;;;5062397;28;20115;-77
2021/12/10 10:51:32;;;;;;;7.53;4.25;;;;;;;;;;5069602;28;20490;-77
2021/12/10 10:53:59;;;;;;;11.73;3.75;;;;;;;;;;5066480;28;20405;-77
2021/12/10 10:56:40;;;;;;;6.72;3.63;;;;;;;;;;5067714;28;20036;-76
2021/12/10 10:59:14;;;;;;;9.00;3.40;;;;;;;;;;5069547;28;20039;-77
2021/12/10 11:01:46;;;;;;;8.77;3.80;;;;;;;;;;5066651;28;20047;-77
2021/12/10 11:04:25;;;;;;;9.50;3.47;;;;;;;;;;5043325;28;20025;-77
2021/12/10 11:06:52;;;;;;;7.35;3.03;;;;;;;;;;5066474;28;20303;-77
2021/12/10 11:09:21;;;;;;;7.65;2.85;;;;;;;;;;5061886;28;20115;-77
2021/12/10 11:11:52;;;;;;;6.10;3.20;;;;;;;;;;5065732;28;20075;-77
2021/12/10 11:14:29;;;;;;;6.38;2.97;;;;;;;;;;5063696;28;20024;-77
2021/12/10 11:17:04;;;;;;;10.05;3.88;;;;;;;;;;5071658;28;20086;-77
2021/12/10 11:19:30;;;;;;;6.32;3.25;;;;;;;;;;5070172;28;20044;-77
2021/12/10 11:21:58;;;;;;;9.95;3.30;;;;;;;;;;5064072;28;20466;-77
2021/12/10 11:24:26;;;;;;;9.63;3.10;;;;;;;;;;5050275;28;20387;-77
2021/12/10 11:27:04;;;;;;;6.75;2.78;;;;;;;;;;5071962;28;20425;-76
2021/12/10 11:29:30;;;;;;;9.18;4.47;;;;;;;;;;5061335;28;20075;-77
2021/12/10 11:32:00;;;;;;;24.73;10.77;;;;;;;;;;5061341;28;20047;-78
2021/12/10 11:34:39;;;;;;;7.70;3.60;;;;;;;;;;5068218;28;20409;-76
2021/12/10 11:37:05;;;;;;;5.97;3.10;;;;;;;;;;5068767;28;20040;-76
2021/12/10 11:39:42;;;;;;;4.55;2.72;;;;;;;;;;5064315;28;20036;-77
2021/12/10 11:42:31;;;;;;;7.78;2.60;;;6.90;99.90;;;;;;5064526;28;20035;-76
2021/12/10 11:45:16;;;;;;;8.55;2.75;;;;;;;;;;5069848;28;20028;-76
2021/12/10 11:47:43;;;;;;;6.18;2.42;;;;;;;;;;5065102;28;20277;-76
2021/12/10 11:50:17;;;;;;;5.85;3.15;;;;;;;;;;5058419;28;20421;-76
2021/12/10 11:52:43;;;;;;;19.67;7.40;;;;;;;;;;5067434;28;20028;-76
2021/12/10 11:55:10;;;;;;;7.18;3.38;;;;;;;;;;5060519;28;20099;-75
2021/12/10 11:57:41;;;;;;;6.60;2.20;;;;;;;;;;5071068;28;20094;-76
2021/12/10 12:00:12;;;;;;;7.85;2.80;;;;;;;;;;5066920;28;20021;-76
2021/12/10 12:02:49;;;;;;;10.50;2.80;;;;;;;;;;5076969;28;20052;-76
2021/12/10 12:05:18;;;;;;;8.48;2.95;;;;;;;;;;5064877;28;20029;-76
2021/12/10 12:07:46;;;;;;;7.32;3.08;;;;;;;;;;5072625;28;20036;-76
2021/12/10 12:10:31;;;;;;;7.50;2.83;;;;;;;;;;5065771;28;20059;-76
2021/12/10 12:12:59;;;;;;;4.82;2.78;;;;;;;;;;5061486;28;20025;-76
2021/12/10 12:15:36;;;;;;;10.40;2.92;;;;;;;;;;5062755;28;20035;-77
2021/12/10 12:18:08;;;;;;;4.93;3.00;;;;;;;;;;5069618;28;20028;-76
2021/12/10 12:20:42;;;;;;;10.32;2.88;;;;;;;;;;5062127;28;20056;-76
2021/12/10 12:26:03;;;;;;;6.13;2.53;;;;;;;;;;5067486;28;20055;-76
2021/12/10 12:28:30;;;;;;;3.85;2.42;;;;;;;;;;5058214;28;20033;-75
2021/12/10 12:30:59;;;;;;;11.68;2.72;;;;;;;;;;5059827;28;20086;-76
2021/12/10 12:33:26;;;;;;;7.10;3.78;;;;;;;;;;5070178;28;20037;-75
2021/12/10 12:35:55;;;;;;;11.07;4.18;;;;;;;;;;5068983;28;20438;-76
2021/12/10 12:38:27;;;;;;;10.40;2.75;;;;;;;;;;5069521;28;20452;-75
2021/12/10 12:41:26;;;;;;;13.63;3.58;;;;;;;;;;5070620;28;20478;-75
2021/12/10 12:44:09;;;;;;;5.35;1.92;;;;;;;;;;5034441;28;20505;-75
2021/12/10 12:46:53;;;;;;;6.45;2.50;;;;;;;;;;5062071;28;20078;-75
2021/12/10 12:49:19;;;;;;;9.70;2.90;;;;;;;;;;5057653;28;20025;-76
2021/12/10 12:52:04;;;;;;;7.38;3.15;;;;;;;;;;5068083;28;20088;-76
2021/12/10 12:54:30;;;;;;;6.82;2.13;;;;;;;;;;5051905;28;20548;-76
2021/12/10 12:56:57;;;;;;;4.57;2.53;;;;;;;;;;5062355;28;20059;-76
2021/12/10 12:59:23;;;;;;;6.93;2.78;;;;;;;;;;5064895;28;20043;-76
2021/12/10 13:01:52;;;;;;;8.70;3.38;;;;;;;;;;5072773;28;20054;-76
2021/12/10 13:04:26;;;;;;;9.95;3.08;;;;;;;;;;5064126;28;20034;-76
2021/12/10 13:06:55;;;;;;;5.43;2.50;;;;;;;;;;5052428;28;20036;-76
2021/12/10 13:09:27;;;;;;;7.93;3.20;;;;;;;;;;5063160;28;20028;-76
2021/12/10 13:12:07;;;;;;;8.10;2.45;;;;;;;;;;5071135;28;20025;-76
2021/12/10 13:14:46;;;;;;;5.88;2.35;;;;;;;;;;5067274;28;20496;-76
2021/12/10 13:17:45;;;;;;;7.13;2.97;;;;;;;;;;5060870;28;20016;-76
2021/12/10 13:20:14;;;;;;;4.93;2.58;;;;;;;;;;5045557;28;20135;-76
2021/12/10 13:22:41;;;;;;;8.50;2.72;;;;;;;;;;5067184;28;20028;-76
2021/12/10 13:25:11;;;;;;;12.27;2.75;;;;;;;;;;5071092;28;20032;-75
2021/12/10 13:27:38;;;;;;;8.00;2.75;;;;;;;;;;5063950;28;20025;-76
2021/12/10 13:30:08;;;;;;;8.02;2.65;;;;;;;;;;5088133;28;20024;-76
2021/12/10 13:32:34;;;;;;;6.85;2.65;;;;;;;;;;5061876;28;20104;-76
2021/12/10 13:35:00;;;;;;;6.25;2.30;;;;;;;;;;5054538;28;20040;-75
2021/12/10 13:37:26;;;;;;;5.50;2.30;;;;;;;;;;5057706;28;20091;-75
2021/12/10 13:39:57;;;;;;;9.75;3.58;;;;;;;;;;5060467;28;20040;-75
2021/12/10 13:42:24;;;;;;;7.72;2.38;;;;;;;;;;5067493;28;20024;-76
2021/12/10 13:44:54;;;;;;;9.40;2.05;;;;;;;;;;5060235;28;20410;-76
2021/12/10 13:47:32;;;;;;;10.30;2.63;;;;;;;;;;5069385;28;20020;-76
2021/12/10 13:50:01;;;;;;;8.52;2.60;;;;;;;;;;5065524;28;20478;-76
2021/12/10 13:52:36;;;;;;;11.00;4.10;;;;;;;;;;5063797;28;20144;-76
2021/12/10 13:55:04;;;;;;;11.35;5.57;;;;;;;;;;5066747;28;20035;-76
2021/12/10 13:57:30;;;;;;;9.95;4.13;;;;;;;;;;5076155;28;20117;-76
2021/12/10 13:59:57;;;;;;;12.15;5.95;;;;;;;;;;5048024;28;20070;-76
2021/12/10 14:02:32;;;;;;;6.13;3.80;;;;;;;;;;5059974;28;20025;-76
2021/12/10 14:04:59;;;;;;;9.63;2.20;;;;;;;;;;5067438;28;20025;-75
2021/12/10 14:07:25;;;;;;;10.50;2.63;;;;;;;;;;5063912;28;20032;-76
2021/12/10 14:09:53;;;;;;;7.10;3.20;;;;;;;;;;5068964;28;20036;-76
2021/12/10 14:12:41;;;;;;;8.10;2.80;;;;;;;;;;5064876;28;20501;-75
2021/12/10 14:15:16;;;;;;;11.65;3.10;;;;;;;;;;5069426;28;20090;-76
2021/12/10 14:17:57;;;;;;;12.57;5.03;;;;;;;;;;5064572;28;20024;-75
2021/12/10 14:20:29;;;;;;;19.50;5.82;;;;;;;;;;5057636;28;20036;-75
2021/12/10 14:23:00;;;;;;;18.25;7.75;;;;;;;;;;5060588;28;20036;-75
2021/12/10 14:25:41;;;;;;;14.23;6.60;;;;;;;;;;5063760;28;20041;-75
2021/12/10 14:28:12;;;;;;;10.43;5.50;;;;;;;;;;5057424;28;20385;-75
2021/12/10 14:30:51;;;;;;;7.90;3.95;;;;;;;;;;5057559;28;20099;-76
2021/12/10 14:33:33;;;;;;;5.32;2.97;;;;;;;;;;5049501;28;20486;-75
2021/12/10 14:35:59;;;;;;;5.18;2.80;;;;;;;;;;5063316;28;20032;-76
2021/12/10 14:38:29;;;;;;;5.75;2.70;;;;;;;;;;5061486;28;20158;-76
2021/12/10 14:41:00;;;;;;;12.02;3.15;;;;;;;;;;5061932;28;20044;-76
2021/12/10 14:43:40;;;;;;;7.15;2.88;;;;;;;;;;5056027;28;20116;-75